Time;durP1;ratioP1;P1;durP2;ratioP2;P2;SDS_P1;SDS_P2;PMS_P1;PMS_P2;Temp;Humidity;BMP_temperature;BMP_pressure;BME280_temperature;BME280_humidity;BME280_pressure;Samples;Min_cycle;Max_cycle;Signal;HPM_P1;HPM_P2
2022/04/24 00:08:36;;;;;;;21.42;6.80;;;14.00;99.90;;;;;;5990987;23;20046;31
2022/04/24 00:11:03;;;;;;;20.73;6.57;;;14.00;99.90;;;;;;4847917;29;19924;-81
2022/04/24 00:13:37;;;;;;;23.92;7.38;;;14.00;99.90;;;;;;4828814;29;20123;-81
2022/04/24 00:16:06;;;;;;;;;;;14.00;99.90;;;;;;4829283;29;20065;-81
2022/04/24 00:18:34;;;;;;;19.77;6.22;;;14.00;99.90;;;;;;4829119;29;19948;-81
2022/04/24 00:21:01;;;;;;;22.58;6.88;;;14.00;99.90;;;;;;4828714;29;20034;-81
2022/04/24 00:23:31;;;;;;;19.83;6.47;;;13.90;99.90;;;;;;4828683;29;20036;-81
2022/04/24 00:25:59;;;;;;;21.73;6.40;;;14.00;99.90;;;;;;4828677;29;20109;-81
2022/04/24 00:28:27;;;;;;;22.15;7.22;;;14.00;99.90;;;;;;4843560;29;20029;-82
2022/04/24 00:30:55;;;;;;;29.90;8.00;;;14.00;99.90;;;;;;4828485;29;20446;-81
2022/04/24 00:33:25;;;;;;;23.95;7.50;;;14.00;99.90;;;;;;4828434;29;20476;-81
2022/04/24 00:35:55;;;;;;;30.13;8.02;;;14.00;99.90;;;;;;4813423;29;20429;-81
2022/04/24 00:38:21;;;;;;;22.80;7.40;;;13.90;99.90;;;;;;4813231;29;20377;-81
2022/04/24 00:40:48;;;;;;;27.23;7.35;;;13.90;99.90;;;;;;4813380;29;20045;-81
2022/04/24 00:43:19;;;;;;;26.38;7.40;;;13.90;99.90;;;;;;4813264;29;20030;-81
2022/04/24 00:46:22;;;;;;;24.60;7.57;;;13.80;99.90;;;;;;4843812;29;20483;-81
2022/04/24 00:48:48;;;;;;;20.03;7.00;;;13.80;99.90;;;;;;4813167;29;20121;-81
2022/04/24 00:51:14;;;;;;;21.40;7.30;;;13.70;99.90;;;;;;4828019;29;20066;-81
2022/04/24 00:53:44;;;;;;;20.92;7.32;;;13.70;99.90;;;;;;4828224;29;20061;-81
2022/04/24 00:56:10;;;;;;;23.13;7.50;;;13.70;99.90;;;;;;4813154;29;20034;-81
2022/04/24 00:58:37;;;;;;;29.10;8.40;;;13.70;99.90;;;;;;4812925;29;20028;-81
2022/04/24 01:01:03;;;;;;;28.27;7.93;;;13.70;99.90;;;;;;4812981;29;20040;-81
2022/04/24 01:03:31;;;;;;;28.20;9.27;;;13.70;99.90;;;;;;4828400;29;20026;-81
2022/04/24 01:05:57;;;;;;;29.52;8.05;;;13.60;99.90;;;;;;4812838;29;20432;-82
2022/04/24 01:08:27;;;;;;;25.65;8.23;;;13.60;99.90;;;;;;4813588;29;20030;-81
2022/04/24 01:10:53;;;;;;;20.10;8.13;;;13.60;99.90;;;;;;4860860;29;20108;-81
2022/04/24 01:13:20;;;;;;;24.60;7.20;;;13.60;99.90;;;;;;4861966;29;20117;-81
2022/04/24 01:15:46;;;;;;;24.70;7.68;;;13.60;99.90;;;;;;4846192;29;20065;-82
2022/04/24 01:18:13;;;;;;;25.80;7.40;;;13.60;99.90;;;;;;4846154;29;20121;-81
2022/04/24 01:20:40;;;;;;;22.90;7.57;;;13.60;99.90;;;;;;4859147;29;20048;-81
2022/04/24 01:23:06;;;;;;;21.42;7.82;;;13.60;99.90;;;;;;4861501;29;20045;-81
2022/04/24 01:25:33;;;;;;;23.70;6.72;;;13.60;99.90;;;;;;4873538;29;20437;-81
2022/04/24 01:28:11;;;;;;;20.38;7.13;;;13.60;99.90;;;;;;4845937;29;20029;-81
2022/04/24 01:30:47;;;;;;;20.55;6.78;;;13.50;99.90;;;;;;4861494;29;20129;-81
2022/04/24 01:33:14;;;;;;;19.92;6.68;;;13.50;99.90;;;;;;4855622;29;20037;-81
2022/04/24 01:35:40;;;;;;;19.52;6.35;;;13.50;99.90;;;;;;4845902;29;20032;-82
2022/04/24 01:38:06;;;;;;;22.00;7.32;;;13.50;99.90;;;;;;4861614;29;20038;-81
2022/04/24 01:40:33;;;;;;;19.33;6.38;;;13.40;99.90;;;;;;4872406;29;20029;-81
2022/04/24 01:42:59;;;;;;;24.23;5.60;;;13.40;99.90;;;;;;4845680;29;20034;-81
2022/04/24 01:45:26;;;;;;;22.13;6.03;;;13.30;99.90;;;;;;4861149;29;20066;-81
2022/04/24 01:47:52;;;;;;;21.13;6.18;;;13.30;99.90;;;;;;4845495;29;20040;-81
2022/04/24 01:50:19;;;;;;;24.00;5.80;;;13.30;99.90;;;;;;4861156;29;20499;-80
2022/04/24 01:52:45;;;;;;;24.58;6.00;;;13.30;99.90;;;;;;4845328;29;20038;-81
2022/04/24 01:55:12;;;;;;;22.63;6.82;;;13.30;99.90;;;;;;4845708;29;20025;-80
2022/04/24 01:57:39;;;;;;;18.48;6.13;;;13.30;99.90;;;;;;4858240;29;20117;-80
2022/04/24 02:00:06;;;;;;;18.42;5.65;;;13.30;99.90;;;;;;4853700;29;20502;-80
2022/04/24 02:02:39;;;;;;;18.30;5.70;;;13.30;99.90;;;;;;4860771;29;20106;-81
2022/04/24 02:05:08;;;;;;;15.55;5.55;;;13.30;99.90;;;;;;4853835;29;20322;-81
2022/04/24 02:07:35;;;;;;;21.20;6.15;;;13.30;99.90;;;;;;4845378;29;20029;-81
2022/04/24 02:10:01;;;;;;;21.88;6.63;;;13.20;99.90;;;;;;4860343;29;20075;-80
2022/04/24 02:12:28;;;;;;;18.05;6.03;;;13.20;99.90;;;;;;4856609;29;20037;-81
2022/04/24 02:14:54;;;;;;;22.25;6.50;;;13.20;99.90;;;;;;4859668;29;20033;-79
2022/04/24 02:17:21;;;;;;;19.42;6.22;;;13.20;99.90;;;;;;4844963;29;20503;-81
2022/04/24 02:19:47;;;;;;;23.63;8.80;;;13.20;99.90;;;;;;4861280;29;20543;-80
2022/04/24 02:22:14;;;;;;;31.20;10.30;;;13.10;99.90;;;;;;4861456;29;20036;-80
2022/04/24 02:24:41;;;;;;;27.17;8.68;;;13.10;99.90;;;;;;4845100;29;20052;-81
2022/04/24 02:27:07;;;;;;;20.17;7.85;;;12.90;99.90;;;;;;4844913;29;20102;-81
2022/04/24 02:29:34;;;;;;;23.13;7.50;;;12.90;99.90;;;;;;4844768;29;20125;-79
2022/04/24 02:32:00;;;;;;;19.90;6.93;;;12.90;99.90;;;;;;4844781;29;20042;-81
2022/04/24 02:34:26;;;;;;;21.85;6.70;;;12.90;99.90;;;;;;4844888;29;20076;-81
2022/04/24 02:36:54;;;;;;;14.57;6.15;;;13.00;99.90;;;;;;4859455;29;20033;-80
2022/04/24 02:39:20;;;;;;;17.88;6.43;;;12.90;99.90;;;;;;4855306;29;20025;-81
2022/04/24 02:41:50;;;;;;;18.50;6.82;;;13.00;99.90;;;;;;4860094;29;20026;-81
2022/04/24 02:44:16;;;;;;;22.20;6.53;;;12.90;99.90;;;;;;4844678;29;20040;-81
2022/04/24 02:46:43;;;;;;;22.88;6.95;;;12.90;99.90;;;;;;4860487;29;20494;-80
2022/04/24 02:49:12;;;;;;;21.60;7.75;;;12.80;99.90;;;;;;4844934;29;20033;-81
2022/04/24 02:51:39;;;;;;;21.83;7.93;;;12.80;99.90;;;;;;4857226;29;20385;-81
2022/04/24 02:54:06;;;;;;;19.75;7.25;;;12.70;99.90;;;;;;4853312;29;20064;-81
2022/04/24 02:56:32;;;;;;;24.90;7.13;;;12.70;99.90;;;;;;4860101;29;20400;-81
2022/04/24 02:59:21;;;;;;;18.85;7.20;;;12.70;99.90;;;;;;4859939;29;20038;-80
2022/04/24 03:01:48;;;;;;;32.25;9.65;;;12.70;99.90;;;;;;4844674;29;20436;-81
2022/04/24 03:04:33;;;;;;;29.15;9.70;;;12.80;99.90;;;;;;4854380;29;20112;-81
2022/04/24 03:07:00;;;;;;;28.50;9.02;;;12.80;99.90;;;;;;4844679;29;20029;-81
2022/04/24 03:09:32;;;;;;;29.88;10.32;;;12.80;99.90;;;;;;4859797;29;20185;-81
2022/04/24 03:11:59;;;;;;;32.65;11.10;;;12.80;99.90;;;;;;4844547;29;20467;-81
2022/04/24 03:14:25;;;;;;;31.52;10.93;;;12.80;99.90;;;;;;4844705;29;20038;-81
2022/04/24 03:16:52;;;;;;;38.22;10.85;;;12.80;99.90;;;;;;4859823;29;20030;-81
2022/04/24 03:19:18;;;;;;;33.35;12.60;;;12.80;99.90;;;;;;4839664;29;20056;-81
2022/04/24 03:21:45;;;;;;;35.25;10.88;;;12.70;99.90;;;;;;4875308;29;20112;-81
2022/04/24 03:24:11;;;;;;;30.00;8.82;;;12.70;99.90;;;;;;4853775;29;20480;-82
2022/04/24 03:26:38;;;;;;;24.02;6.88;;;12.70;99.90;;;;;;4859894;29;20045;-81
2022/04/24 03:29:04;;;;;;;21.17;5.90;;;12.70;99.90;;;;;;4860914;29;20029;-81
2022/04/24 03:31:31;;;;;;;20.75;5.85;;;12.70;99.90;;;;;;4860794;29;20041;-80
2022/04/24 03:33:58;;;;;;;20.35;6.07;;;12.70;99.90;;;;;;4859703;29;20029;-80
2022/04/24 03:36:26;;;;;;;13.70;4.97;;;12.70;99.90;;;;;;4844323;29;20189;-81
2022/04/24 03:38:53;;;;;;;16.58;5.85;;;12.70;99.90;;;;;;4858947;29;20045;-81
2022/04/24 03:41:19;;;;;;;13.68;4.78;;;12.70;99.90;;;;;;4854615;29;20041;-81
2022/04/24 03:43:46;;;;;;;25.98;5.78;;;12.60;99.90;;;;;;4844332;29;20029;-81
2022/04/24 03:46:12;;;;;;;20.48;5.40;;;12.60;99.90;;;;;;4844202;29;20041;-80
2022/04/24 03:48:48;;;;;;;21.15;5.03;;;12.70;99.90;;;;;;4857169;29;20025;-80
2022/04/24 03:51:14;;;;;;;18.42;4.90;;;12.60;99.90;;;;;;4844056;29;20052;-80
2022/04/24 03:53:41;;;;;;;15.25;4.53;;;12.70;99.90;;;;;;4844091;29;20030;-80
2022/04/24 03:56:07;;;;;;;16.85;4.75;;;12.70;99.90;;;;;;4837703;29;20449;-81
2022/04/24 03:58:34;;;;;;;19.33;5.30;;;12.60;99.90;;;;;;4859865;29;20030;-81
2022/04/24 04:01:03;;;;;;;15.63;4.75;;;12.70;99.90;;;;;;4852158;29;20109;-81
2022/04/24 04:03:34;;;;;;;16.13;5.18;;;12.60;99.90;;;;;;4859545;29;20029;-81
2022/04/24 04:06:00;;;;;;;17.15;5.60;;;12.60;99.90;;;;;;4862789;29;20025;-80
2022/04/24 04:08:27;;;;;;;18.42;5.38;;;12.60;99.90;;;;;;4879056;29;20065;-80
2022/04/24 04:10:54;;;;;;;16.17;5.38;;;12.60;99.90;;;;;;4850330;29;20051;-81
2022/04/24 04:13:21;;;;;;;18.67;5.95;;;12.60;99.90;;;;;;4850281;29;20035;-81
2022/04/24 04:15:48;;;;;;;21.23;6.10;;;12.70;99.90;;;;;;4866150;29;20029;-81
2022/04/24 04:18:14;;;;;;;17.10;5.18;;;12.70;99.90;;;;;;4865752;29;20096;-81
2022/04/24 04:20:44;;;;;;;16.10;6.07;;;12.70;99.90;;;;;;4850141;29;20119;-81
2022/04/24 04:23:11;;;;;;;22.55;5.10;;;12.80;99.90;;;;;;4882341;29;20058;-81
2022/04/24 04:25:37;;;;;;;21.35;5.07;;;12.80;99.90;;;;;;4850390;29;20041;-81
2022/04/24 04:28:04;;;;;;;14.25;4.47;;;12.90;99.90;;;;;;4850450;29;20488;-82
2022/04/24 04:30:30;;;;;;;12.05;3.90;;;12.90;99.90;;;;;;4850046;29;20040;-81
2022/04/24 04:32:57;;;;;;;16.90;3.95;;;13.00;99.90;;;;;;4850252;29;20399;-81
2022/04/24 04:35:23;;;;;;;13.05;4.03;;;13.00;99.90;;;;;;4850076;29;20100;-82
2022/04/24 04:37:51;;;;;;;14.63;3.88;;;13.00;99.90;;;;;;4865343;29;20033;-82
2022/04/24 04:40:23;;;;;;;15.50;4.55;;;13.20;99.90;;;;;;4849772;29;20032;-81
2022/04/24 04:42:50;;;;;;;11.80;3.85;;;13.20;99.90;;;;;;4849800;29;20093;-81
2022/04/24 04:45:17;;;;;;;16.95;4.45;;;13.30;99.90;;;;;;4849789;29;20029;-81
2022/04/24 04:47:47;;;;;;;12.52;3.80;;;13.40;99.90;;;;;;4849802;29;20372;-82
2022/04/24 04:50:14;;;;;;;18.27;4.57;;;13.50;99.90;;;;;;4880693;29;20108;-81
2022/04/24 04:52:44;;;;;;;16.45;4.93;;;13.50;99.90;;;;;;4849725;29;20033;-81
2022/04/24 04:55:11;;;;;;;12.93;4.07;;;13.60;99.90;;;;;;4865115;29;20108;-81
2022/04/24 04:57:38;;;;;;;11.65;4.30;;;13.80;99.90;;;;;;4849656;29;20029;-81
2022/04/24 05:00:05;;;;;;;19.95;5.75;;;13.90;99.90;;;;;;4865450;29;20036;-81
2022/04/24 05:02:36;;;;;;;15.35;4.25;;;14.00;99.90;;;;;;4849350;29;20173;-81
2022/04/24 05:05:04;;;;;;;9.90;3.83;;;14.20;99.90;;;;;;4849639;29;20033;-82
2022/04/24 05:07:31;;;;;;;12.55;3.58;;;14.30;99.90;;;;;;4849401;29;20036;-81
2022/04/24 05:09:57;;;;;;;11.18;3.47;;;14.40;99.90;;;;;;4846409;29;20524;-82
2022/04/24 05:12:30;;;;;;;11.73;3.70;;;14.60;99.90;;;;;;4857158;29;20516;-82
2022/04/24 05:15:05;;;;;;;17.50;3.65;;;14.60;99.90;;;;;;4861501;29;20128;-82
2022/04/24 05:17:34;;;;;;;9.40;3.40;;;14.70;99.90;;;;;;4863275;29;20598;-82
2022/04/24 05:20:02;;;;;;;19.38;4.22;;;14.80;99.90;;;;;;4846153;29;20030;-82
2022/04/24 05:22:34;;;;;;;13.38;4.80;;;15.00;99.90;;;;;;4846098;29;20539;-82
2022/04/24 05:25:01;;;;;;;12.93;5.25;;;15.20;99.90;;;;;;4854063;29;20082;-82
2022/04/24 05:27:28;;;;;;;15.50;4.88;;;15.30;99.90;;;;;;4861299;29;20030;-82
2022/04/24 05:29:55;;;;;;;16.83;4.28;;;15.40;99.90;;;;;;4845962;29;20066;-82
2022/04/24 05:32:29;;;;;;;10.65;3.05;;;15.50;99.90;;;;;;4861627;29;20094;-83
2022/04/24 05:34:56;;;;;;;18.30;3.95;;;15.60;99.90;;;;;;4845605;29;20033;-81
2022/04/24 05:37:22;;;;;;;11.82;3.75;;;15.70;99.90;;;;;;4862234;29;20025;-83
2022/04/24 05:39:49;;;;;;;15.90;3.58;;;15.80;99.90;;;;;;4844612;29;20030;-81
2022/04/24 05:42:15;;;;;;;12.98;3.63;;;15.90;99.90;;;;;;4845643;29;20021;-82
2022/04/24 05:44:42;;;;;;;12.93;3.08;;;16.00;99.90;;;;;;4845643;29;20120;-82
2022/04/24 05:47:08;;;;;;;14.27;3.30;;;16.10;99.90;;;;;;4845543;29;20054;-81
2022/04/24 05:49:34;;;;;;;10.98;3.75;;;16.30;99.90;;;;;;4845536;29;20029;-82
2022/04/24 05:52:01;;;;;;;12.02;3.47;;;16.60;99.90;;;;;;4860874;29;20457;-82
2022/04/24 05:54:30;;;;;;;11.07;3.22;;;16.80;99.90;;;;;;4861276;29;20030;-83
2022/04/24 05:56:56;;;;;;;10.10;2.65;;;17.00;99.90;;;;;;4861485;29;20037;-84
2022/04/24 05:59:23;;;;;;;10.70;3.40;;;17.00;99.90;;;;;;4841492;29;20104;-84
2022/04/24 06:01:50;;;;;;;10.55;2.70;;;17.10;99.90;;;;;;4845848;29;20496;-84
2022/04/24 06:04:16;;;;;;;11.30;2.63;;;17.30;99.90;;;;;;4845791;29;20029;-84
2022/04/24 06:06:43;;;;;;;12.25;3.60;;;17.30;99.90;;;;;;4861005;29;20395;-83
2022/04/24 06:09:09;;;;;;;11.90;2.90;;;17.50;99.90;;;;;;4845792;29;20057;-84
2022/04/24 06:11:37;;;;;;;13.75;3.35;;;17.80;99.90;;;;;;4845745;29;20053;-84
2022/04/24 06:14:04;;;;;;;11.75;2.30;;;17.80;99.90;;;;;;4845706;29;20034;-84
2022/04/24 06:16:35;;;;;;;8.77;2.20;;;18.10;99.90;;;;;;4861052;29;20034;-83
2022/04/24 06:19:02;;;;;;;10.25;2.55;;;18.10;99.90;;;;;;4845631;29;20089;-83
2022/04/24 06:21:31;;;;;;;13.48;2.30;;;18.40;99.90;;;;;;4845393;29;20026;-84
2022/04/24 06:23:58;;;;;;;13.35;2.45;;;18.80;99.90;;;;;;4845557;29;20033;-84
2022/04/24 06:26:24;;;;;;;12.07;2.35;;;18.90;99.90;;;;;;4845316;29;20120;-83
2022/04/24 06:28:57;;;;;;;12.60;3.53;;;18.90;99.90;;;;;;4826556;29;20484;-84
2022/04/24 06:31:23;;;;;;;12.50;2.50;;;19.10;99.90;;;;;;4811226;29;20070;-83
2022/04/24 06:33:53;;;;;;;14.15;2.35;;;19.10;99.90;;;;;;4826526;29;20038;-85
2022/04/24 06:36:20;;;;;;;11.70;2.70;;;19.00;99.90;;;;;;4811112;29;20034;-84
2022/04/24 06:38:46;;;;;;;14.95;3.10;;;18.90;99.90;;;;;;4810897;29;20034;-85
2022/04/24 06:41:13;;;;;;;13.27;2.95;;;19.20;99.90;;;;;;4826284;29;20105;-82
2022/04/24 06:43:39;;;;;;;12.68;2.63;;;19.50;99.90;;;;;;4810597;29;20556;-82
2022/04/24 06:46:06;;;;;;;8.43;2.17;;;19.70;99.90;;;;;;4810792;29;20042;-82
2022/04/24 06:48:33;;;;;;;14.43;2.90;;;20.20;99.90;;;;;;4825568;29;20053;-85
2022/04/24 06:50:59;;;;;;;9.75;2.05;;;20.60;99.90;;;;;;4825711;29;20496;-83
2022/04/24 06:53:28;;;;;;;8.10;1.88;;;21.10;99.90;;;;;;4841088;29;20080;-85
2022/04/24 06:55:56;;;;;;;10.55;3.20;;;21.10;99.90;;;;;;4840680;29;20038;-82
2022/04/24 06:58:25;;;;;;;11.02;3.28;;;21.70;99.90;;;;;;4840610;29;20081;-82
2022/04/24 07:00:52;;;;;;;8.65;1.83;;;21.80;99.90;;;;;;4825575;29;20045;-84
2022/04/24 07:03:30;;;;;;;12.05;2.17;;;22.00;99.90;;;;;;4810188;29;20385;-82
2022/04/24 07:05:57;;;;;;;6.75;1.80;;;22.50;99.90;;;;;;4848270;29;20056;-83
2022/04/24 07:08:34;;;;;;;9.00;2.25;;;22.80;99.90;;;;;;4844179;29;20030;-82
2022/04/24 07:11:01;;;;;;;7.43;2.15;;;23.00;99.90;;;;;;4861177;29;20037;-83
2022/04/24 07:13:27;;;;;;;7.78;2.20;;;23.50;99.90;;;;;;4834988;29;20388;-84
2022/04/24 07:15:54;;;;;;;8.63;2.08;;;24.20;99.90;;;;;;4848839;29;20026;-84
2022/04/24 07:18:21;;;;;;;7.85;1.73;;;24.50;99.90;;;;;;4844674;29;20092;-84
2022/04/24 07:20:48;;;;;;;16.88;2.42;;;24.90;99.90;;;;;;4850254;29;20025;-85
2022/04/24 07:23:15;;;;;;;4.60;1.70;;;24.90;99.90;;;;;;4842861;29;20437;-82
2022/04/24 07:25:44;;;;;;;5.32;2.00;;;24.70;99.90;;;;;;4850665;29;20030;-85
2022/04/24 07:28:14;;;;;;;7.40;2.00;;;24.80;99.90;;;;;;4842639;29;20485;-84
2022/04/24 07:30:42;;;;;;;4.28;1.75;;;25.10;99.90;;;;;;4851969;29;20128;-85
2022/04/24 07:33:09;;;;;;;3.50;2.08;;;25.50;99.90;;;;;;4841573;29;20034;-86
2022/04/24 07:35:39;;;;;;;6.53;2.00;;;25.60;99.90;;;;;;4845299;29;20500;-85
2022/04/24 07:38:06;;;;;;;3.05;1.50;;;25.90;99.90;;;;;;4842328;29;20029;-86
2022/04/24 07:40:39;;;;;;;2.90;1.65;;;26.30;99.90;;;;;;4852892;29;20014;-84
2022/04/24 07:43:08;;;;;;;7.97;1.60;;;26.70;99.90;;;;;;4854293;29;20034;-84
2022/04/24 07:45:47;;;;;;;7.55;2.20;;;26.50;99.90;;;;;;4851517;29;20069;-82
2022/04/24 07:48:15;;;;;;;6.05;2.08;;;26.80;99.90;;;;;;4848401;29;20083;-85
2022/04/24 07:50:48;;;;;;;3.20;1.77;;;26.90;99.90;;;;;;4850802;29;20037;-83
2022/04/24 07:53:16;;;;;;;5.53;1.83;;;27.30;99.90;;;;;;4847190;29;20034;-83
2022/04/24 07:55:45;;;;;;;5.00;1.60;;;27.30;99.90;;;;;;4852426;29;20113;-84
2022/04/24 07:58:13;;;;;;;5.55;1.75;;;27.40;99.90;;;;;;4846001;29;20030;-85
2022/04/24 08:00:41;;;;;;;5.45;2.00;;;27.50;99.90;;;;;;4852991;29;20108;-85
2022/04/24 08:03:10;;;;;;;3.60;1.80;;;27.50;99.90;;;;;;4845077;29;20034;-85
2022/04/24 08:05:42;;;;;;;7.72;3.05;;;27.70;99.90;;;;;;4849500;29;20037;-84
2022/04/24 08:08:09;;;;;;;6.63;2.17;;;28.00;99.90;;;;;;4845374;29;20392;-85
2022/04/24 08:10:38;;;;;;;2.95;1.52;;;27.90;99.90;;;;;;4853898;29;20065;-86
2022/04/24 08:13:05;;;;;;;4.63;1.80;;;27.60;99.90;;;;;;4843532;29;20029;-86
2022/04/24 08:15:32;;;;;;;7.68;2.50;;;27.50;99.90;;;;;;4852472;29;20026;-85
2022/04/24 08:18:00;;;;;;;6.93;2.83;;;27.70;99.90;;;;;;4851976;29;20498;-86
2022/04/24 08:20:27;;;;;;;18.67;6.95;;;27.40;99.90;;;;;;4850777;29;20045;-89
2022/04/24 08:22:57;;;;;;;13.50;5.50;;;27.10;99.90;;;;;;4842156;29;20083;-89
2022/04/24 08:25:25;;;;;;;8.93;2.90;;;27.00;99.90;;;;;;4840501;29;20525;-91
2022/04/24 08:27:54;;;;;;;6.70;1.98;;;26.70;99.90;;;;;;4844702;29;20037;-89
2022/04/24 08:30:26;;;;;;;4.82;1.48;;;26.40;99.90;;;;;;4839829;29;20030;-90
2022/04/24 08:32:52;;;;;;;3.85;1.40;;;26.30;99.90;;;;;;4844696;29;20038;-89
2022/04/24 08:35:20;;;;;;;5.00;1.63;;;26.20;99.90;;;;;;4834067;29;20059;-90
2022/04/24 08:37:48;;;;;;;3.88;1.30;;;25.90;99.90;;;;;;4844373;29;20045;-91
2022/04/24 08:40:17;;;;;;;4.63;1.50;;;25.90;99.90;;;;;;4838894;29;20034;-89
2022/04/24 08:42:44;;;;;;;8.23;2.88;;;25.30;99.90;;;;;;4844939;29;20090;-90
2022/04/24 08:45:14;;;;;;;9.50;2.90;;;25.30;99.90;;;;;;4838195;29;20060;-93
2022/04/24 08:47:42;;;;;;;5.63;1.77;;;25.10;99.90;;;;;;4844425;29;20041;-88
2022/04/24 08:50:10;;;;;;;4.97;1.55;;;25.30;99.90;;;;;;4837603;29;20037;-89
2022/04/24 08:52:38;;;;;;;7.68;2.17;;;25.50;99.90;;;;;;4844127;29;20125;-89
2022/04/24 08:55:05;;;;;;;4.35;1.50;;;25.80;99.90;;;;;;4837460;29;20038;-89
2022/04/24 08:57:31;;;;;;;4.53;1.55;;;26.00;99.90;;;;;;4844290;29;20034;-91
2022/04/24 09:00:03;;;;;;;7.80;2.15;;;26.10;99.90;;;;;;4844118;29;20037;-89
2022/04/24 09:02:29;;;;;;;8.65;1.70;;;26.30;99.90;;;;;;4840240;29;20034;-91
2022/04/24 09:04:56;;;;;;;5.00;1.80;;;26.40;99.90;;;;;;4844179;29;20046;-89
2022/04/24 09:07:30;;;;;;;4.97;1.52;;;26.40;99.90;;;;;;4839654;29;20041;-90
2022/04/24 09:09:58;;;;;;;;;;;26.10;99.90;;;;;;4844343;29;20136;-92
2022/04/24 09:12:30;;;;;;;3.85;1.35;;;25.90;99.90;;;;;;4839719;29;19939;-92
2022/04/24 09:14:58;;;;;;;3.67;1.50;;;25.80;99.90;;;;;;4845424;29;20058;-91
2022/04/24 09:17:27;;;;;;;4.15;1.20;;;25.70;99.90;;;;;;4840245;29;20112;-92
2022/04/24 09:19:55;;;;;;;3.75;1.10;;;25.50;99.90;;;;;;4844116;29;20030;-91
2022/04/24 09:22:22;;;;;;;9.25;2.40;;;25.40;99.90;;;;;;4839203;29;20030;-92
2022/04/24 09:24:55;;;;;;;7.88;1.70;;;25.10;99.90;;;;;;4843914;29;20034;-90
2022/04/24 09:27:34;;;;;;;5.10;1.38;;;25.10;99.90;;;;;;4839205;29;20072;-87
2022/04/24 09:30:09;;;;;;;6.45;1.60;;;25.10;99.90;;;;;;4829049;29;20042;-86
2022/04/24 09:32:50;;;;;;;7.05;2.38;;;25.10;99.90;;;;;;4843378;29;20093;-86
2022/04/24 09:35:32;;;;;;;4.45;1.50;;;25.00;99.90;;;;;;4838064;29;20038;-88
2022/04/24 09:38:19;;;;;;;2.53;1.23;;;25.10;99.90;;;;;;4843343;29;20033;-87
2022/04/24 09:40:50;;;;;;;8.27;2.40;;;24.80;99.90;;;;;;4843608;29;20492;-93
2022/04/24 09:43:19;;;;;;;4.88;1.85;;;24.80;99.90;;;;;;4838243;29;20034;-91
2022/04/24 09:45:54;;;;;;;7.65;2.20;;;24.90;99.90;;;;;;4843246;29;20030;-92
2022/04/24 09:48:23;;;;;;;7.03;1.40;;;24.90;99.90;;;;;;4838564;29;20038;-92
2022/04/24 09:50:50;;;;;;;3.05;1.42;;;24.90;99.90;;;;;;4828434;29;20034;-91
2022/04/24 09:53:20;;;;;;;6.30;1.30;;;25.00;99.90;;;;;;4838554;29;20052;-91
2022/04/24 09:55:51;;;;;;;4.20;1.30;;;25.00;99.90;;;;;;4844482;29;20097;-92
2022/04/24 09:58:22;;;;;;;4.18;1.65;;;25.00;99.90;;;;;;4857709;29;20090;-89
2022/04/24 10:00:51;;;;;;;2.72;1.30;;;24.90;99.90;;;;;;4849813;29;20537;-92
2022/04/24 10:03:19;;;;;;;4.80;1.30;;;25.00;99.90;;;;;;4837630;29;20025;-90
2022/04/24 10:05:48;;;;;;;2.63;1.20;;;24.80;99.90;;;;;;4843370;29;20057;-91
2022/04/24 10:08:16;;;;;;;3.50;1.02;;;24.90;99.90;;;;;;4837517;29;20044;-91
2022/04/24 10:10:43;;;;;;;4.22;1.50;;;24.90;99.90;;;;;;4827680;29;20129;-91
2022/04/24 10:13:12;;;;;;;4.78;1.35;;;24.80;99.90;;;;;;4836686;29;20070;-90
2022/04/24 10:15:49;;;;;;;5.30;1.30;;;24.80;99.90;;;;;;4843637;29;20070;-88
2022/04/24 10:18:57;;;;;;;3.63;1.58;;;24.70;99.90;;;;;;4837925;29;20038;-88
2022/04/24 10:21:41;;;;;;;4.22;1.40;;;24.60;99.90;;;;;;4842838;29;20489;-88
2022/04/24 10:24:08;;;;;;;;;;;24.70;99.90;;;;;;4843089;29;20438;-88
2022/04/24 10:26:37;;;;;;;1.92;1.10;;;24.70;99.90;;;;;;4842661;29;19908;-88
2022/04/24 10:29:09;;;;;;;4.38;1.27;;;24.70;99.90;;;;;;4835793;29;20038;-88
2022/04/24 10:31:44;;;;;;;4.05;0.90;;;24.80;99.90;;;;;;4843320;29;20485;-91
2022/04/24 10:34:16;;;;;;;4.68;1.08;;;24.90;99.90;;;;;;4837084;29;20030;-91
2022/04/24 10:37:04;;;;;;;6.75;1.25;;;24.80;99.90;;;;;;4842639;29;20040;-92
2022/04/24 10:39:33;;;;;;;7.35;1.45;;;24.70;99.90;;;;;;4839238;29;20058;-93
2022/04/24 10:42:09;;;;;;;2.63;1.52;;;24.70;99.90;;;;;;4842485;29;20042;-91
2022/04/24 10:44:35;;;;;;;2.15;1.00;;;24.70;99.90;;;;;;4842426;29;20026;-90
2022/04/24 10:47:11;;;;;;;4.05;1.10;;;24.70;99.90;;;;;;4835403;29;20041;-92
2022/04/24 10:49:38;;;;;;;3.97;1.00;;;24.80;99.90;;;;;;4842775;29;20061;-92
2022/04/24 10:52:06;;;;;;;1.85;1.00;;;24.80;99.90;;;;;;4835762;29;20046;-90
2022/04/24 10:54:44;;;;;;;2.78;0.90;;;24.70;99.90;;;;;;4842765;29;20026;-91
2022/04/24 10:57:20;;;;;;;4.25;1.20;;;24.70;99.90;;;;;;4842698;29;20051;-93
2022/04/24 10:59:53;;;;;;;4.15;1.10;;;24.80;99.90;;;;;;4843073;29;20082;-92
2022/04/24 11:02:30;;;;;;;2.72;1.42;;;24.90;99.90;;;;;;4837595;29;20117;-90
2022/04/24 11:05:09;;;;;;;5.07;1.20;;;24.90;99.90;;;;;;4842488;29;20046;-92
2022/04/24 11:07:39;;;;;;;5.30;1.70;;;24.70;99.90;;;;;;4825487;29;20110;-89
2022/04/24 11:10:09;;;;;;;6.32;1.50;;;24.70;99.90;;;;;;4814337;29;20090;-89
2022/04/24 11:12:37;;;;;;;4.70;1.50;;;24.80;99.90;;;;;;4809539;29;20091;-88
2022/04/24 11:15:09;;;;;;;6.85;1.60;;;24.70;99.90;;;;;;4813507;29;20033;-92
2022/04/24 11:17:37;;;;;;;3.25;1.23;;;24.80;99.90;;;;;;4812622;29;20041;-91
2022/04/24 11:20:13;;;;;;;4.82;1.17;;;24.70;99.90;;;;;;4812541;29;20031;-90
2022/04/24 11:22:52;;;;;;;3.33;1.35;;;24.70;99.90;;;;;;4812739;29;20501;-89
2022/04/24 11:25:24;;;;;;;2.58;0.95;;;24.70;99.90;;;;;;4812494;29;20066;-89
2022/04/24 11:27:57;;;;;;;8.73;4.32;;;24.60;99.90;;;;;;4812571;29;20030;-90
2022/04/24 11:30:28;;;;;;;7.20;3.28;;;24.50;99.90;;;;;;4812747;29;20481;-88
2022/04/24 11:33:00;;;;;;;2.85;1.42;;;24.60;99.90;;;;;;4812161;29;20045;-88
2022/04/24 11:35:30;;;;;;;2.13;1.27;;;24.60;99.90;;;;;;4812212;29;20068;-91
2022/04/24 11:37:57;;;;;;;4.35;1.20;;;24.50;99.90;;;;;;4812154;29;20030;-85
2022/04/24 11:40:24;;;;;;;3.85;0.98;;;24.60;99.90;;;;;;4812162;29;20038;-91
2022/04/24 11:42:50;;;;;;;5.57;1.10;;;24.60;99.90;;;;;;4812273;29;20057;-87
2022/04/24 11:50:53;;;;;;;2.35;1.00;;;24.40;99.90;;;;;;4812499;29;20046;-91
2022/04/24 11:53:21;;;;;;;8.60;1.05;;;24.30;99.90;;;;;;4811839;29;20090;-91
2022/04/24 11:56:02;;;;;;;1.92;1.30;;;24.40;99.90;;;;;;4811673;29;20031;-88
2022/04/24 11:58:35;;;;;;;2.78;1.60;;;24.40;99.90;;;;;;4811838;29;20057;-89
2022/04/24 12:01:09;;;;;;;3.65;1.35;;;24.40;99.90;;;;;;4811984;29;20030;-89
2022/04/24 12:03:37;;;;;;;3.05;1.20;;;24.30;99.90;;;;;;4811884;29;20030;-89
2022/04/24 12:06:11;;;;;;;3.33;1.65;;;24.30;99.90;;;;;;4811715;29;20110;-88
2022/04/24 12:08:43;;;;;;;3.50;1.20;;;24.30;99.90;;;;;;4813622;29;20038;-89
2022/04/24 12:11:22;;;;;;;4.40;1.52;;;24.40;99.90;;;;;;4838563;29;20050;-88
2022/04/24 12:14:03;;;;;;;4.75;1.20;;;24.40;99.90;;;;;;4845074;29;20070;-89
2022/04/24 12:16:30;;;;;;;5.13;1.05;;;24.30;99.90;;;;;;4841223;29;20122;-89
2022/04/24 12:19:00;;;;;;;4.25;1.55;;;24.30;99.90;;;;;;4845011;29;20034;-89
2022/04/24 12:21:28;;;;;;;2.63;1.20;;;24.20;99.90;;;;;;4840883;29;20037;-88
2022/04/24 12:23:55;;;;;;;3.45;1.30;;;24.20;99.90;;;;;;4844835;29;20109;-89
2022/04/24 12:26:22;;;;;;;3.05;1.10;;;24.10;99.90;;;;;;4839243;29;20515;-89
2022/04/24 12:28:49;;;;;;;3.25;0.93;;;24.20;99.90;;;;;;4844738;29;20034;-89
2022/04/24 12:31:24;;;;;;;2.63;1.00;;;24.10;99.90;;;;;;4839166;29;20049;-87
2022/04/24 12:33:59;;;;;;;4.18;1.63;;;24.20;99.90;;;;;;4844555;29;20043;-89
2022/04/24 12:36:26;;;;;;;2.72;1.10;;;24.10;99.90;;;;;;4840411;29;20037;-89
2022/04/24 12:38:59;;;;;;;3.25;1.10;;;24.10;99.90;;;;;;4844804;29;20030;-89
2022/04/24 12:41:29;;;;;;;4.97;1.15;;;24.20;99.90;;;;;;4840411;29;20030;-89
2022/04/24 12:44:05;;;;;;;3.55;1.13;;;24.20;99.90;;;;;;4844504;29;20030;-87
2022/04/24 12:46:32;;;;;;;4.40;1.00;;;24.10;99.90;;;;;;4847226;29;20033;-87
2022/04/24 12:49:00;;;;;;;4.25;1.13;;;24.10;99.90;;;;;;4851607;29;20549;-89
2022/04/24 12:51:27;;;;;;;2.97;1.20;;;24.10;99.90;;;;;;4848311;29;20046;-88
2022/04/24 12:53:56;;;;;;;1.60;0.90;;;24.10;99.90;;;;;;4844185;29;20042;-88
2022/04/24 12:56:24;;;;;;;6.57;1.20;;;24.00;99.90;;;;;;4842061;29;20125;-89
2022/04/24 12:58:52;;;;;;;3.97;1.08;;;23.90;99.90;;;;;;4844282;29;20057;-91
2022/04/24 13:01:20;;;;;;;2.85;1.50;;;23.90;99.90;;;;;;4851739;29;20030;-90
2022/04/24 13:03:47;;;;;;;2.75;1.00;;;23.90;99.90;;;;;;4858658;29;20033;-90
2022/04/24 13:06:15;;;;;;;3.33;0.90;;;23.90;99.90;;;;;;4853135;29;20025;-89